createdAt,value
2023-04-17T00:03:42.030Z,2.66
2023-04-17T00:08:45.686Z,2.60
2023-04-17T00:13:50.445Z,2.51
2023-04-17T00:18:53.873Z,2.45
2023-04-17T00:23:57.317Z,2.44
2023-04-17T00:29:02.361Z,2.38
2023-04-17T00:34:05.633Z,2.34
2023-04-17T00:39:09.003Z,2.29
2023-04-17T00:44:13.654Z,2.25
2023-04-17T00:49:17.001Z,2.22
2023-04-17T00:54:20.695Z,2.19
2023-04-17T00:59:26.658Z,2.25
2023-04-17T01:04:30.681Z,2.37
2023-04-17T01:09:33.925Z,2.48
2023-04-17T01:14:38.556Z,2.51
2023-04-17T01:19:42.071Z,2.51
2023-04-17T01:24:46.890Z,2.55
2023-04-17T01:29:50.332Z,2.54
2023-04-17T01:34:53.838Z,2.51
2023-04-17T01:39:59.508Z,2.50
2023-04-17T01:45:02.869Z,2.48
2023-04-17T01:50:09.289Z,2.48
2023-04-17T01:55:14.305Z,2.47
2023-04-17T02:00:18.972Z,2.42
2023-04-17T02:05:22.291Z,2.39
2023-04-17T02:10:27.048Z,2.34
2023-04-17T02:15:30.284Z,2.28
2023-04-17T02:20:33.790Z,2.25
2023-04-17T02:25:38.585Z,2.26
2023-04-17T02:30:42.041Z,2.20
2023-04-17T02:35:45.789Z,2.24
2023-04-17T02:40:50.417Z,2.30
2023-04-17T02:45:53.697Z,2.36
2023-04-17T02:50:57.363Z,2.37
2023-04-17T02:56:02.036Z,2.43
2023-04-17T03:01:05.584Z,2.54
2023-04-17T03:06:10.257Z,2.60
2023-04-17T03:11:15.130Z,2.68
2023-04-17T03:16:18.616Z,2.79
2023-04-17T03:21:22.136Z,2.94
2023-04-17T03:26:26.909Z,3.13
2023-04-17T03:31:30.529Z,3.42
2023-04-17T03:36:33.915Z,3.68
2023-04-17T03:41:38.946Z,3.92
2023-04-17T03:46:42.179Z,4.23
2023-04-17T03:51:45.399Z,4.58
2023-04-17T03:56:50.126Z,4.92
2023-04-17T04:01:54.335Z,5.28
2023-04-17T04:06:58.195Z,5.58
2023-04-17T04:12:03.169Z,5.94
2023-04-17T04:17:06.391Z,6.22
2023-04-17T04:22:10.392Z,6.71
2023-04-17T04:27:18.165Z,7.23
2023-04-17T04:32:21.889Z,7.59
2023-04-17T04:37:30.274Z,7.89
2023-04-17T04:42:35.690Z,8.38
2023-04-17T04:47:38.886Z,8.68
2023-04-17T04:52:42.363Z,8.79
2023-04-17T04:57:47.070Z,8.83
2023-04-17T05:02:50.605Z,8.82
2023-04-17T05:07:55.168Z,8.83
2023-04-17T05:12:59.815Z,8.81
2023-04-17T05:18:03.210Z,8.72
2023-04-17T05:23:06.729Z,8.54
2023-04-17T05:28:11.452Z,8.49
2023-04-17T05:33:14.675Z,8.70
2023-04-17T05:38:17.910Z,9.12
2023-04-17T05:43:22.537Z,9.76
2023-04-17T05:48:26.149Z,10.98
2023-04-17T05:53:30.429Z,11.73
2023-04-17T05:58:36.217Z,11.92
2023-04-17T06:03:39.666Z,11.93
2023-04-17T06:08:43.565Z,12.03
2023-04-17T06:13:48.418Z,12.09
2023-04-17T06:18:51.807Z,11.71
2023-04-17T06:23:55.274Z,11.49
2023-04-17T06:29:00.909Z,11.75
2023-04-17T06:34:04.254Z,11.98
2023-04-17T06:39:07.485Z,12.31
2023-04-17T06:44:12.319Z,12.49
2023-04-17T06:49:15.629Z,12.79
2023-04-17T06:54:19.139Z,13.17
2023-04-17T06:59:23.825Z,13.85
2023-04-17T07:04:27.450Z,14.43
2023-04-17T07:09:31.082Z,14.80
2023-04-17T07:14:36.468Z,14.65
2023-04-17T07:19:40.293Z,14.76
2023-04-17T07:24:43.594Z,14.78
2023-04-17T07:29:54.852Z,14.93
2023-04-17T07:34:58.261Z,15.28
2023-04-17T07:40:01.742Z,16.07
2023-04-17T07:45:10.182Z,16.11
2023-04-17T07:50:13.870Z,16.06
2023-04-17T07:55:17.915Z,16.01
2023-04-17T08:00:24.299Z,15.66
2023-04-17T08:05:27.867Z,15.50
2023-04-17T08:10:31.331Z,17.47
2023-04-17T08:15:40.884Z,18.48
2023-04-17T08:20:44.249Z,20.13
2023-04-17T08:25:47.726Z,21.74
2023-04-17T08:30:52.625Z,21.18
2023-04-17T08:35:56.297Z,24.44
2023-04-17T08:41:05.733Z,27.51
2023-04-17T08:46:10.744Z,27.35
2023-04-17T08:51:15.835Z,25.58
2023-04-17T08:56:19.332Z,24.66
2023-04-17T09:01:24.497Z,24.46
2023-04-17T09:06:29.787Z,24.48
2023-04-17T09:11:33.375Z,25.98
2023-04-17T09:16:54.822Z,26.80
2023-04-17T09:21:58.288Z,26.72
2023-04-17T09:27:21.611Z,25.77
2023-04-17T09:32:26.889Z,25.97
2023-04-17T09:37:49.651Z,28.15
2023-04-17T09:42:58.260Z,30.17
2023-04-17T09:48:06.553Z,30.97
2023-04-17T09:53:10.470Z,32.09
2023-04-17T09:58:14.325Z,30.14
2023-04-17T10:03:19.811Z,29.82
2023-04-17T10:08:23.727Z,30.42
2023-04-17T10:13:29.890Z,31.17
2023-04-17T10:18:34.839Z,30.49
2023-04-17T10:23:38.373Z,28.49
2023-04-17T10:28:49.386Z,25.54
2023-04-17T10:33:55.268Z,23.37
2023-04-17T10:39:13.905Z,22.16
2023-04-17T10:44:19.726Z,21.67
2023-04-17T10:49:24.596Z,21.48
2023-04-17T10:54:28.048Z,20.93
2023-04-17T10:59:31.394Z,20.55
2023-04-17T11:04:36.321Z,21.11
2023-04-17T11:09:41.457Z,22.44
2023-04-17T11:14:44.704Z,22.34
2023-04-17T11:19:50.981Z,21.29
2023-04-17T11:24:54.494Z,20.22
2023-04-17T11:29:58.029Z,19.70
2023-04-17T11:35:02.972Z,19.11
2023-04-17T11:40:10.329Z,18.67
2023-04-17T11:45:13.869Z,19.50
2023-04-17T11:50:18.800Z,19.69
2023-04-17T11:55:22.221Z,19.09
2023-04-17T12:00:30.048Z,19.91
2023-04-17T12:05:35.176Z,19.45
2023-04-17T12:10:40.811Z,18.93
2023-04-17T12:15:44.416Z,19.14
2023-04-17T12:20:49.165Z,20.18
2023-04-17T12:25:52.627Z,20.37
2023-04-17T12:30:55.914Z,19.13
2023-04-17T12:36:01.555Z,17.92
2023-04-17T12:41:05.112Z,17.59
2023-04-17T12:46:08.834Z,18.31
2023-04-17T12:51:13.714Z,17.97
2023-04-17T12:56:17.142Z,17.95
2023-04-17T13:01:21.038Z,18.03
2023-04-17T13:06:25.837Z,17.47
2023-04-17T13:11:29.109Z,17.54
2023-04-17T13:16:32.704Z,17.66
2023-04-17T13:21:37.533Z,17.44
2023-04-17T13:26:40.940Z,16.81
2023-04-17T13:31:44.506Z,16.40
2023-04-17T13:36:49.862Z,16.18
2023-04-17T13:41:53.288Z,15.98
2023-04-17T13:46:56.867Z,15.69
2023-04-17T13:52:01.635Z,15.65
2023-04-17T13:57:06.612Z,16.04
2023-04-17T14:02:10.068Z,16.26
2023-04-17T14:07:15.559Z,16.15
2023-04-17T14:12:21.013Z,15.79
2023-04-17T14:17:24.655Z,15.46
2023-04-17T14:22:29.630Z,15.22
2023-04-17T14:27:34.482Z,14.93
2023-04-17T14:32:38.737Z,14.70
2023-04-17T14:37:44.043Z,14.66
2023-04-17T14:42:53.954Z,14.51
2023-04-17T14:47:58.795Z,14.30
2023-04-17T14:53:04.285Z,14.09
2023-04-17T14:58:07.642Z,13.92
2023-04-17T15:03:11.582Z,13.73
2023-04-17T15:08:16.731Z,13.59
2023-04-17T15:13:20.274Z,13.38
2023-04-17T15:18:23.543Z,13.26
2023-04-17T15:23:29.751Z,13.16
2023-04-17T15:28:33.231Z,13.14
2023-04-17T15:33:37.372Z,13.10
2023-04-17T15:38:41.980Z,12.97
2023-04-17T15:43:45.203Z,12.80
2023-04-17T15:49:01.159Z,12.63
2023-04-17T15:54:13.038Z,12.48
2023-04-17T15:59:16.353Z,12.35
2023-04-17T16:04:20.970Z,12.21
2023-04-17T16:09:25.973Z,12.07
2023-04-17T16:14:29.333Z,11.93
2023-04-17T16:19:33.120Z,11.82
2023-04-17T16:24:37.936Z,11.72
2023-04-17T16:29:41.296Z,11.60
2023-04-17T16:34:44.560Z,11.51
2023-04-17T16:39:50.550Z,11.41
2023-04-17T16:44:53.841Z,11.28
2023-04-17T16:49:57.165Z,11.19
2023-04-17T16:55:02.017Z,11.12
2023-04-17T17:00:06.383Z,11.03
2023-04-17T17:05:11.372Z,10.96
2023-04-17T17:10:16.187Z,10.88
2023-04-17T17:15:21.221Z,10.80
2023-04-17T17:20:24.972Z,10.73
2023-04-17T17:25:30.007Z,10.66
2023-04-17T17:30:33.394Z,10.56
2023-04-17T17:35:36.707Z,10.47
2023-04-17T17:40:41.523Z,10.37
2023-04-17T17:45:44.961Z,10.34
2023-04-17T17:50:48.667Z,10.29
2023-04-17T17:55:54.731Z,10.27
2023-04-17T18:00:58.206Z,10.16
2023-04-17T18:06:01.789Z,10.06
2023-04-17T18:11:06.445Z,9.99
2023-04-17T18:16:09.931Z,9.88
2023-04-17T18:21:13.395Z,9.80
2023-04-17T18:26:18.142Z,9.74
2023-04-17T18:31:23.147Z,9.68
2023-04-17T18:36:26.507Z,9.62
2023-04-17T18:41:31.210Z,9.57
2023-04-17T18:46:34.761Z,9.50
2023-04-17T18:51:38.625Z,9.43
2023-04-17T18:56:43.443Z,9.36
2023-04-17T19:01:47.104Z,9.32
2023-04-17T19:06:50.651Z,9.31
2023-04-17T19:11:56.641Z,9.28
2023-04-17T19:17:01.098Z,9.24
2023-04-17T19:22:04.366Z,9.16
2023-04-17T19:27:09.244Z,9.08
2023-04-17T19:32:13.188Z,8.75
2023-04-17T19:37:16.411Z,8.86
2023-04-17T19:42:21.612Z,8.75
2023-04-17T19:47:25.251Z,8.69
2023-04-17T19:52:28.632Z,8.60
2023-04-17T19:57:33.278Z,8.54
2023-04-17T20:02:37.048Z,8.49
2023-04-17T20:07:40.384Z,8.46
2023-04-17T20:12:45.282Z,8.46
2023-04-17T20:17:48.679Z,8.48
2023-04-17T20:22:52.320Z,8.49
2023-04-17T20:27:57.361Z,8.50
2023-04-17T20:33:01.130Z,8.52
2023-04-17T20:38:04.707Z,8.45
2023-04-17T20:43:09.368Z,8.34
2023-04-17T20:48:12.836Z,8.35
2023-04-17T20:53:16.334Z,8.32
2023-04-17T20:58:21.120Z,8.32
2023-04-17T21:03:26.173Z,8.32
2023-04-17T21:08:30.157Z,8.28
2023-04-17T21:13:35.006Z,8.21
2023-04-17T21:18:38.454Z,8.06
2023-04-17T21:23:41.880Z,7.98
2023-04-17T21:28:48.467Z,7.95
2023-04-17T21:33:51.682Z,7.97
2023-04-17T21:38:54.916Z,8.03
2023-04-17T21:44:01.606Z,8.12
2023-04-17T21:49:05.136Z,8.22
2023-04-17T21:54:10.080Z,8.33
2023-04-17T21:59:15.033Z,8.34
2023-04-17T22:04:18.497Z,8.25
2023-04-17T22:09:21.719Z,8.14
2023-04-17T22:14:26.270Z,8.01
2023-04-17T22:19:29.710Z,7.97
2023-04-17T22:24:33.035Z,7.94
2023-04-17T22:29:37.741Z,7.93
2023-04-17T22:34:42.506Z,7.73
2023-04-17T22:39:45.984Z,7.80
2023-04-17T22:44:51.158Z,7.69
2023-04-17T22:49:55.208Z,7.63
2023-04-17T22:54:58.567Z,7.65
2023-04-17T23:00:04.345Z,7.67
2023-04-17T23:05:08.892Z,7.63
2023-04-17T23:10:12.175Z,7.64
2023-04-17T23:15:17.182Z,7.64
2023-04-17T23:20:20.484Z,7.61
2023-04-17T23:25:23.877Z,7.55
2023-04-17T23:30:28.628Z,7.50
2023-04-17T23:35:32.107Z,7.42
2023-04-17T23:40:35.974Z,7.35
2023-04-17T23:45:40.729Z,7.29
2023-04-17T23:50:44.050Z,7.35
2023-04-17T23:55:47.509Z,7.40
